sensor_id;sensor_type;location;lat;lon;timestamp;P1;durP1;ratioP1;P2;durP2;ratioP2
63499;SDS011;49654;51.142;14.924;2023-07-31T00:02:03;15.32;;;4.63;;
63499;SDS011;49654;51.142;14.924;2023-07-31T00:04:30;11.07;;;4.57;;
63499;SDS011;49654;51.142;14.924;2023-07-31T00:06:57;14.80;;;3.75;;
63499;SDS011;49654;51.142;14.924;2023-07-31T00:09:26;12.57;;;3.30;;
63499;SDS011;49654;51.142;14.924;2023-07-31T00:11:53;9.50;;;3.35;;
63499;SDS011;49654;51.142;14.924;2023-07-31T00:14:20;15.35;;;3.50;;
63499;SDS011;49654;51.142;14.924;2023-07-31T00:16:47;11.43;;;3.33;;
63499;SDS011;49654;51.142;14.924;2023-07-31T00:19:14;9.85;;;3.42;;
63499;SDS011;49654;51.142;14.924;2023-07-31T00:21:41;16.25;;;3.58;;
63499;SDS011;49654;51.142;14.924;2023-07-31T00:24:08;8.93;;;3.20;;
63499;SDS011;49654;51.142;14.924;2023-07-31T00:26:37;14.50;;;3.80;;
63499;SDS011;49654;51.142;14.924;2023-07-31T00:29:03;13.27;;;3.10;;
63499;SDS011;49654;51.142;14.924;2023-07-31T00:31:30;11.60;;;3.40;;
63499;SDS011;49654;51.142;14.924;2023-07-31T00:33:57;11.15;;;3.38;;
63499;SDS011;49654;51.142;14.924;2023-07-31T00:36:24;11.77;;;4.03;;
63499;SDS011;49654;51.142;14.924;2023-07-31T00:38:51;11.40;;;3.42;;
63499;SDS011;49654;51.142;14.924;2023-07-31T00:41:18;8.25;;;3.20;;
63499;SDS011;49654;51.142;14.924;2023-07-31T00:43:46;12.82;;;4.00;;
63499;SDS011;49654;51.142;14.924;2023-07-31T00:46:13;13.25;;;3.78;;
63499;SDS011;49654;51.142;14.924;2023-07-31T00:48:40;10.70;;;3.92;;
63499;SDS011;49654;51.142;14.924;2023-07-31T00:51:07;15.05;;;3.50;;
63499;SDS011;49654;51.142;14.924;2023-07-31T00:53:35;15.82;;;3.72;;
63499;SDS011;49654;51.142;14.924;2023-07-31T00:56:02;11.32;;;3.40;;
63499;SDS011;49654;51.142;14.924;2023-07-31T00:58:30;13.00;;;4.00;;
63499;SDS011;49654;51.142;14.924;2023-07-31T01:00:58;11.70;;;3.40;;
63499;SDS011;49654;51.142;14.924;2023-07-31T01:03:25;15.25;;;3.85;;
63499;SDS011;49654;51.142;14.924;2023-07-31T01:05:55;8.38;;;3.10;;
63499;SDS011;49654;51.142;14.924;2023-07-31T01:08:29;12.07;;;3.58;;
63499;SDS011;49654;51.142;14.924;2023-07-31T01:11:07;16.00;;;3.55;;
63499;SDS011;49654;51.142;14.924;2023-07-31T01:13:41;9.95;;;2.97;;
63499;SDS011;49654;51.142;14.924;2023-07-31T01:16:10;12.38;;;3.50;;
63499;SDS011;49654;51.142;14.924;2023-07-31T01:18:38;22.52;;;3.40;;
63499;SDS011;49654;51.142;14.924;2023-07-31T01:21:07;17.13;;;3.63;;
63499;SDS011;49654;51.142;14.924;2023-07-31T01:23:53;20.70;;;3.63;;
63499;SDS011;49654;51.142;14.924;2023-07-31T01:26:36;15.40;;;2.95;;
63499;SDS011;49654;51.142;14.924;2023-07-31T01:29:07;18.17;;;3.72;;
63499;SDS011;49654;51.142;14.924;2023-07-31T01:31:37;11.20;;;3.05;;
63499;SDS011;49654;51.142;14.924;2023-07-31T01:34:06;11.30;;;3.33;;
63499;SDS011;49654;51.142;14.924;2023-07-31T01:36:36;9.68;;;3.20;;
63499;SDS011;49654;51.142;14.924;2023-07-31T01:39:03;12.13;;;3.40;;
63499;SDS011;49654;51.142;14.924;2023-07-31T01:41:30;7.85;;;3.08;;
63499;SDS011;49654;51.142;14.924;2023-07-31T01:43:59;18.02;;;3.67;;
63499;SDS011;49654;51.142;14.924;2023-07-31T01:46:26;12.45;;;3.75;;
63499;SDS011;49654;51.142;14.924;2023-07-31T01:48:53;12.68;;;3.13;;
63499;SDS011;49654;51.142;14.924;2023-07-31T01:51:20;10.50;;;3.05;;
63499;SDS011;49654;51.142;14.924;2023-07-31T01:53:47;19.23;;;3.85;;
63499;SDS011;49654;51.142;14.924;2023-07-31T01:56:14;13.50;;;3.03;;
63499;SDS011;49654;51.142;14.924;2023-07-31T01:58:41;13.25;;;3.00;;
63499;SDS011;49654;51.142;14.924;2023-07-31T02:01:09;8.95;;;2.97;;
63499;SDS011;49654;51.142;14.924;2023-07-31T02:03:36;8.02;;;2.60;;
63499;SDS011;49654;51.142;14.924;2023-07-31T02:06:03;12.20;;;2.72;;
63499;SDS011;49654;51.142;14.924;2023-07-31T02:08:30;11.27;;;2.67;;
63499;SDS011;49654;51.142;14.924;2023-07-31T02:10:57;10.02;;;2.60;;
63499;SDS011;49654;51.142;14.924;2023-07-31T02:13:24;14.98;;;3.10;;
63499;SDS011;49654;51.142;14.924;2023-07-31T02:15:51;10.18;;;3.20;;
63499;SDS011;49654;51.142;14.924;2023-07-31T02:18:20;14.60;;;3.60;;
63499;SDS011;49654;51.142;14.924;2023-07-31T02:20:48;8.07;;;2.70;;
63499;SDS011;49654;51.142;14.924;2023-07-31T02:23:16;15.00;;;3.20;;
63499;SDS011;49654;51.142;14.924;2023-07-31T02:25:43;11.18;;;2.95;;
63499;SDS011;49654;51.142;14.924;2023-07-31T02:28:10;11.32;;;3.42;;
63499;SDS011;49654;51.142;14.924;2023-07-31T02:30:38;9.35;;;3.08;;
63499;SDS011;49654;51.142;14.924;2023-07-31T02:33:05;12.15;;;2.90;;
63499;SDS011;49654;51.142;14.924;2023-07-31T02:35:33;8.50;;;3.15;;
63499;SDS011;49654;51.142;14.924;2023-07-31T02:38:00;14.02;;;2.78;;
63499;SDS011;49654;51.142;14.924;2023-07-31T02:40:27;11.60;;;2.72;;
63499;SDS011;49654;51.142;14.924;2023-07-31T02:42:54;11.20;;;2.60;;
63499;SDS011;49654;51.142;14.924;2023-07-31T02:45:21;8.00;;;2.92;;
63499;SDS011;49654;51.142;14.924;2023-07-31T02:47:48;11.05;;;2.92;;
63499;SDS011;49654;51.142;14.924;2023-07-31T02:50:15;12.60;;;2.80;;
63499;SDS011;49654;51.142;14.924;2023-07-31T02:52:44;8.10;;;2.60;;
63499;SDS011;49654;51.142;14.924;2023-07-31T02:55:11;11.45;;;3.30;;
63499;SDS011;49654;51.142;14.924;2023-07-31T02:57:38;7.15;;;3.08;;
63499;SDS011;49654;51.142;14.924;2023-07-31T03:00:05;8.63;;;2.50;;
63499;SDS011;49654;51.142;14.924;2023-07-31T03:02:33;10.35;;;2.90;;
63499;SDS011;49654;51.142;14.924;2023-07-31T03:05:00;11.20;;;2.60;;
63499;SDS011;49654;51.142;14.924;2023-07-31T03:07:27;8.18;;;2.38;;
63499;SDS011;49654;51.142;14.924;2023-07-31T03:09:57;9.27;;;2.97;;
63499;SDS011;49654;51.142;14.924;2023-07-31T03:12:24;8.43;;;2.88;;
63499;SDS011;49654;51.142;14.924;2023-07-31T03:14:51;9.75;;;3.05;;
63499;SDS011;49654;51.142;14.924;2023-07-31T03:17:18;7.65;;;2.70;;
63499;SDS011;49654;51.142;14.924;2023-07-31T03:19:45;10.75;;;2.75;;
63499;SDS011;49654;51.142;14.924;2023-07-31T03:22:12;9.13;;;2.80;;
63499;SDS011;49654;51.142;14.924;2023-07-31T03:24:39;7.03;;;2.60;;
63499;SDS011;49654;51.142;14.924;2023-07-31T03:27:07;10.82;;;2.85;;
63499;SDS011;49654;51.142;14.924;2023-07-31T03:29:34;7.40;;;2.50;;
63499;SDS011;49654;51.142;14.924;2023-07-31T03:32:01;9.95;;;2.40;;
63499;SDS011;49654;51.142;14.924;2023-07-31T03:34:29;8.18;;;3.00;;
63499;SDS011;49654;51.142;14.924;2023-07-31T03:36:57;11.35;;;2.65;;
63499;SDS011;49654;51.142;14.924;2023-07-31T03:39:24;7.72;;;2.50;;
63499;SDS011;49654;51.142;14.924;2023-07-31T03:41:51;6.57;;;2.70;;
63499;SDS011;49654;51.142;14.924;2023-07-31T03:44:20;8.02;;;2.50;;
63499;SDS011;49654;51.142;14.924;2023-07-31T03:46:47;7.43;;;2.67;;
63499;SDS011;49654;51.142;14.924;2023-07-31T03:49:14;9.10;;;2.58;;
63499;SDS011;49654;51.142;14.924;2023-07-31T03:51:41;5.97;;;2.42;;
63499;SDS011;49654;51.142;14.924;2023-07-31T03:54:08;9.18;;;2.63;;
63499;SDS011;49654;51.142;14.924;2023-07-31T03:56:35;7.40;;;2.60;;
63499;SDS011;49654;51.142;14.924;2023-07-31T03:59:03;10.23;;;2.75;;
63499;SDS011;49654;51.142;14.924;2023-07-31T04:01:32;8.38;;;2.42;;
63499;SDS011;49654;51.142;14.924;2023-07-31T04:03:59;8.18;;;2.35;;
63499;SDS011;49654;51.142;14.924;2023-07-31T04:06:26;5.78;;;2.08;;
63499;SDS011;49654;51.142;14.924;2023-07-31T04:08:53;5.80;;;2.35;;
63499;SDS011;49654;51.142;14.924;2023-07-31T04:11:20;4.72;;;2.13;;
63499;SDS011;49654;51.142;14.924;2023-07-31T04:13:47;9.05;;;2.75;;
63499;SDS011;49654;51.142;14.924;2023-07-31T04:16:14;9.35;;;2.60;;
63499;SDS011;49654;51.142;14.924;2023-07-31T04:18:42;6.82;;;2.40;;
63499;SDS011;49654;51.142;14.924;2023-07-31T04:21:09;12.43;;;2.90;;
63499;SDS011;49654;51.142;14.924;2023-07-31T04:23:36;7.88;;;2.45;;
63499;SDS011;49654;51.142;14.924;2023-07-31T04:26:03;6.78;;;2.33;;
63499;SDS011;49654;51.142;14.924;2023-07-31T04:28:30;8.35;;;2.55;;
63499;SDS011;49654;51.142;14.924;2023-07-31T04:30:58;12.05;;;3.42;;
63499;SDS011;49654;51.142;14.924;2023-07-31T04:33:25;6.80;;;2.50;;
63499;SDS011;49654;51.142;14.924;2023-07-31T04:35:53;8.32;;;2.53;;
63499;SDS011;49654;51.142;14.924;2023-07-31T04:38:20;5.78;;;2.15;;
63499;SDS011;49654;51.142;14.924;2023-07-31T04:40:48;6.93;;;2.30;;
63499;SDS011;49654;51.142;14.924;2023-07-31T04:43:15;6.97;;;2.60;;
63499;SDS011;49654;51.142;14.924;2023-07-31T04:45:42;8.93;;;2.50;;
63499;SDS011;49654;51.142;14.924;2023-07-31T04:48:11;10.02;;;2.92;;
63499;SDS011;49654;51.142;14.924;2023-07-31T04:50:38;5.95;;;2.70;;
63499;SDS011;49654;51.142;14.924;2023-07-31T04:53:06;8.10;;;2.50;;
63499;SDS011;49654;51.142;14.924;2023-07-31T04:55:33;9.63;;;2.50;;
63499;SDS011;49654;51.142;14.924;2023-07-31T04:58:00;5.10;;;2.72;;
63499;SDS011;49654;51.142;14.924;2023-07-31T05:00:27;6.22;;;2.50;;
63499;SDS011;49654;51.142;14.924;2023-07-31T05:02:55;8.35;;;2.58;;
63499;SDS011;49654;51.142;14.924;2023-07-31T05:05:22;8.45;;;2.85;;
63499;SDS011;49654;51.142;14.924;2023-07-31T05:07:49;5.35;;;2.10;;
63499;SDS011;49654;51.142;14.924;2023-07-31T05:10:17;6.15;;;2.58;;
63499;SDS011;49654;51.142;14.924;2023-07-31T05:12:44;7.35;;;2.78;;
63499;SDS011;49654;51.142;14.924;2023-07-31T05:15:11;6.68;;;2.55;;
63499;SDS011;49654;51.142;14.924;2023-07-31T05:17:38;7.57;;;3.00;;
63499;SDS011;49654;51.142;14.924;2023-07-31T05:20:06;10.27;;;2.78;;
63499;SDS011;49654;51.142;14.924;2023-07-31T05:22:34;5.75;;;2.53;;
63499;SDS011;49654;51.142;14.924;2023-07-31T05:25:01;5.75;;;2.35;;
63499;SDS011;49654;51.142;14.924;2023-07-31T05:27:30;8.20;;;2.50;;
63499;SDS011;49654;51.142;14.924;2023-07-31T05:29:58;9.88;;;2.53;;
63499;SDS011;49654;51.142;14.924;2023-07-31T05:32:25;5.55;;;2.40;;
63499;SDS011;49654;51.142;14.924;2023-07-31T05:34:52;10.40;;;2.70;;
63499;SDS011;49654;51.142;14.924;2023-07-31T05:37:19;7.53;;;2.90;;
63499;SDS011;49654;51.142;14.924;2023-07-31T05:39:47;6.05;;;2.72;;
63499;SDS011;49654;51.142;14.924;2023-07-31T05:42:14;8.77;;;3.10;;
63499;SDS011;49654;51.142;14.924;2023-07-31T05:44:42;6.97;;;2.63;;
63499;SDS011;49654;51.142;14.924;2023-07-31T05:47:10;7.20;;;2.35;;
63499;SDS011;49654;51.142;14.924;2023-07-31T05:49:37;8.73;;;2.72;;
63499;SDS011;49654;51.142;14.924;2023-07-31T05:52:04;9.10;;;2.70;;
63499;SDS011;49654;51.142;14.924;2023-07-31T05:54:31;7.28;;;2.85;;
63499;SDS011;49654;51.142;14.924;2023-07-31T05:56:59;6.03;;;2.40;;
63499;SDS011;49654;51.142;14.924;2023-07-31T05:59:26;8.40;;;3.00;;
63499;SDS011;49654;51.142;14.924;2023-07-31T06:01:54;7.80;;;2.25;;
63499;SDS011;49654;51.142;14.924;2023-07-31T06:04:21;6.20;;;2.55;;
63499;SDS011;49654;51.142;14.924;2023-07-31T06:06:51;6.28;;;2.50;;
63499;SDS011;49654;51.142;14.924;2023-07-31T06:09:18;4.75;;;2.28;;
63499;SDS011;49654;51.142;14.924;2023-07-31T06:11:45;7.72;;;2.50;;
63499;SDS011;49654;51.142;14.924;2023-07-31T06:14:13;7.00;;;2.30;;
63499;SDS011;49654;51.142;14.924;2023-07-31T06:16:40;5.35;;;2.10;;
63499;SDS011;49654;51.142;14.924;2023-07-31T06:19:08;3.95;;;2.10;;
63499;SDS011;49654;51.142;14.924;2023-07-31T06:21:35;4.47;;;2.10;;
63499;SDS011;49654;51.142;14.924;2023-07-31T06:24:04;6.30;;;2.20;;
63499;SDS011;49654;51.142;14.924;2023-07-31T06:26:31;7.25;;;2.70;;
63499;SDS011;49654;51.142;14.924;2023-07-31T06:28:58;4.50;;;2.08;;
63499;SDS011;49654;51.142;14.924;2023-07-31T06:31:25;7.30;;;2.50;;
63499;SDS011;49654;51.142;14.924;2023-07-31T06:33:52;4.43;;;2.03;;
63499;SDS011;49654;51.142;14.924;2023-07-31T06:36:20;5.75;;;2.65;;
63499;SDS011;49654;51.142;14.924;2023-07-31T06:38:48;4.22;;;2.33;;
63499;SDS011;49654;51.142;14.924;2023-07-31T06:41:16;6.15;;;2.40;;
63499;SDS011;49654;51.142;14.924;2023-07-31T06:43:43;4.20;;;2.15;;
63499;SDS011;49654;51.142;14.924;2023-07-31T06:46:10;4.07;;;2.10;;
63499;SDS011;49654;51.142;14.924;2023-07-31T06:48:39;5.20;;;2.28;;
63499;SDS011;49654;51.142;14.924;2023-07-31T06:51:07;9.55;;;3.15;;
63499;SDS011;49654;51.142;14.924;2023-07-31T06:53:35;4.97;;;2.20;;
63499;SDS011;49654;51.142;14.924;2023-07-31T06:56:02;3.88;;;2.30;;
63499;SDS011;49654;51.142;14.924;2023-07-31T06:58:29;5.28;;;2.30;;
63499;SDS011;49654;51.142;14.924;2023-07-31T07:00:56;6.38;;;2.45;;
63499;SDS011;49654;51.142;14.924;2023-07-31T07:03:24;3.85;;;2.22;;
63499;SDS011;49654;51.142;14.924;2023-07-31T07:05:51;7.82;;;2.78;;
63499;SDS011;49654;51.142;14.924;2023-07-31T07:08:18;5.70;;;2.55;;
63499;SDS011;49654;51.142;14.924;2023-07-31T07:10:46;4.90;;;2.90;;
63499;SDS011;49654;51.142;14.924;2023-07-31T07:13:13;9.43;;;2.90;;
63499;SDS011;49654;51.142;14.924;2023-07-31T07:15:40;6.85;;;2.80;;
63499;SDS011;49654;51.142;14.924;2023-07-31T07:18:07;5.80;;;2.80;;
63499;SDS011;49654;51.142;14.924;2023-07-31T07:20:36;5.40;;;3.22;;
63499;SDS011;49654;51.142;14.924;2023-07-31T07:23:03;6.07;;;2.65;;
63499;SDS011;49654;51.142;14.924;2023-07-31T07:25:30;6.63;;;2.67;;
63499;SDS011;49654;51.142;14.924;2023-07-31T07:27:58;4.15;;;2.58;;
63499;SDS011;49654;51.142;14.924;2023-07-31T07:30:25;2.90;;;2.58;;
63499;SDS011;49654;51.142;14.924;2023-07-31T07:32:52;3.38;;;2.50;;
63499;SDS011;49654;51.142;14.924;2023-07-31T07:35:19;9.38;;;3.28;;
63499;SDS011;49654;51.142;14.924;2023-07-31T07:37:48;3.58;;;2.20;;
63499;SDS011;49654;51.142;14.924;2023-07-31T07:40:15;6.63;;;2.22;;
63499;SDS011;49654;51.142;14.924;2023-07-31T07:42:42;5.20;;;2.38;;
63499;SDS011;49654;51.142;14.924;2023-07-31T07:45:11;4.97;;;2.35;;
63499;SDS011;49654;51.142;14.924;2023-07-31T07:47:38;6.40;;;2.65;;
63499;SDS011;49654;51.142;14.924;2023-07-31T07:50:07;5.05;;;2.58;;
63499;SDS011;49654;51.142;14.924;2023-07-31T07:52:35;7.30;;;2.60;;
63499;SDS011;49654;51.142;14.924;2023-07-31T07:55:02;3.88;;;2.80;;
63499;SDS011;49654;51.142;14.924;2023-07-31T07:57:30;6.28;;;2.90;;
63499;SDS011;49654;51.142;14.924;2023-07-31T07:59:57;5.70;;;3.10;;
63499;SDS011;49654;51.142;14.924;2023-07-31T08:02:25;5.18;;;2.47;;
63499;SDS011;49654;51.142;14.924;2023-07-31T08:04:52;4.95;;;2.53;;
63499;SDS011;49654;51.142;14.924;2023-07-31T08:07:19;6.03;;;2.67;;
63499;SDS011;49654;51.142;14.924;2023-07-31T08:09:46;5.82;;;2.50;;
63499;SDS011;49654;51.142;14.924;2023-07-31T08:12:13;7.22;;;2.85;;
63499;SDS011;49654;51.142;14.924;2023-07-31T08:14:40;5.35;;;2.72;;
63499;SDS011;49654;51.142;14.924;2023-07-31T08:17:07;6.88;;;2.70;;
63499;SDS011;49654;51.142;14.924;2023-07-31T08:19:37;3.35;;;2.80;;
63499;SDS011;49654;51.142;14.924;2023-07-31T08:22:04;4.32;;;2.80;;
63499;SDS011;49654;51.142;14.924;2023-07-31T08:24:31;6.40;;;2.67;;
63499;SDS011;49654;51.142;14.924;2023-07-31T08:26:58;4.65;;;2.75;;
63499;SDS011;49654;51.142;14.924;2023-07-31T08:29:25;5.30;;;2.70;;
63499;SDS011;49654;51.142;14.924;2023-07-31T08:31:52;3.40;;;2.42;;
63499;SDS011;49654;51.142;14.924;2023-07-31T08:34:19;5.63;;;2.53;;
63499;SDS011;49654;51.142;14.924;2023-07-31T08:36:47;7.50;;;2.90;;
63499;SDS011;49654;51.142;14.924;2023-07-31T08:39:14;6.25;;;2.70;;
63499;SDS011;49654;51.142;14.924;2023-07-31T08:41:41;8.65;;;3.10;;
63499;SDS011;49654;51.142;14.924;2023-07-31T08:44:08;7.93;;;2.60;;
63499;SDS011;49654;51.142;14.924;2023-07-31T08:46:37;8.82;;;2.60;;
63499;SDS011;49654;51.142;14.924;2023-07-31T08:49:04;5.85;;;2.50;;
63499;SDS011;49654;51.142;14.924;2023-07-31T08:51:33;6.53;;;2.30;;
63499;SDS011;49654;51.142;14.924;2023-07-31T08:54:02;8.10;;;2.65;;
63499;SDS011;49654;51.142;14.924;2023-07-31T08:56:31;7.15;;;3.00;;
63499;SDS011;49654;51.142;14.924;2023-07-31T08:58:58;6.00;;;2.42;;
63499;SDS011;49654;51.142;14.924;2023-07-31T09:01:28;6.90;;;3.20;;
63499;SDS011;49654;51.142;14.924;2023-07-31T09:03:56;6.72;;;3.65;;
63499;SDS011;49654;51.142;14.924;2023-07-31T09:06:26;6.93;;;3.83;;
63499;SDS011;49654;51.142;14.924;2023-07-31T09:08:55;6.03;;;3.00;;
63499;SDS011;49654;51.142;14.924;2023-07-31T09:11:23;6.20;;;3.03;;
63499;SDS011;49654;51.142;14.924;2023-07-31T09:13:51;10.73;;;3.15;;
63499;SDS011;49654;51.142;14.924;2023-07-31T09:16:19;7.47;;;2.40;;
63499;SDS011;49654;51.142;14.924;2023-07-31T09:18:54;7.22;;;2.65;;
63499;SDS011;49654;51.142;14.924;2023-07-31T09:21:22;5.88;;;2.50;;
63499;SDS011;49654;51.142;14.924;2023-07-31T09:23:51;6.07;;;2.75;;
63499;SDS011;49654;51.142;14.924;2023-07-31T09:26:30;7.22;;;2.88;;
63499;SDS011;49654;51.142;14.924;2023-07-31T09:28:58;5.93;;;2.92;;
63499;SDS011;49654;51.142;14.924;2023-07-31T09:31:32;9.45;;;2.92;;
63499;SDS011;49654;51.142;14.924;2023-07-31T09:34:00;7.97;;;3.35;;
63499;SDS011;49654;51.142;14.924;2023-07-31T09:36:29;5.50;;;2.50;;
63499;SDS011;49654;51.142;14.924;2023-07-31T09:38:58;5.95;;;2.60;;
63499;SDS011;49654;51.142;14.924;2023-07-31T09:41:30;6.35;;;3.28;;
63499;SDS011;49654;51.142;14.924;2023-07-31T09:43:57;6.82;;;2.78;;
63499;SDS011;49654;51.142;14.924;2023-07-31T09:46:26;5.63;;;2.78;;
63499;SDS011;49654;51.142;14.924;2023-07-31T09:49:02;5.57;;;3.13;;
63499;SDS011;49654;51.142;14.924;2023-07-31T09:51:30;6.18;;;2.85;;
63499;SDS011;49654;51.142;14.924;2023-07-31T09:53:57;3.92;;;2.80;;
63499;SDS011;49654;51.142;14.924;2023-07-31T09:56:24;6.15;;;3.00;;
63499;SDS011;49654;51.142;14.924;2023-07-31T09:58:53;3.70;;;2.70;;
63499;SDS011;49654;51.142;14.924;2023-07-31T10:01:21;4.30;;;2.70;;
63499;SDS011;49654;51.142;14.924;2023-07-31T10:03:48;5.78;;;2.78;;
63499;SDS011;49654;51.142;14.924;2023-07-31T10:06:16;5.90;;;2.60;;
63499;SDS011;49654;51.142;14.924;2023-07-31T10:08:45;12.35;;;3.42;;
63499;SDS011;49654;51.142;14.924;2023-07-31T10:11:14;6.07;;;2.53;;
63499;SDS011;49654;51.142;14.924;2023-07-31T10:13:42;4.47;;;2.35;;
63499;SDS011;49654;51.142;14.924;2023-07-31T10:16:11;6.78;;;2.97;;
63499;SDS011;49654;51.142;14.924;2023-07-31T10:18:39;4.97;;;2.72;;
63499;SDS011;49654;51.142;14.924;2023-07-31T10:21:07;4.35;;;3.00;;
63499;SDS011;49654;51.142;14.924;2023-07-31T10:23:34;5.70;;;3.25;;
63499;SDS011;49654;51.142;14.924;2023-07-31T10:26:02;5.68;;;2.78;;
63499;SDS011;49654;51.142;14.924;2023-07-31T10:28:31;5.90;;;2.80;;
63499;SDS011;49654;51.142;14.924;2023-07-31T10:31:00;4.28;;;2.42;;
63499;SDS011;49654;51.142;14.924;2023-07-31T10:33:29;4.72;;;2.60;;
63499;SDS011;49654;51.142;14.924;2023-07-31T10:36:12;4.10;;;2.60;;
63499;SDS011;49654;51.142;14.924;2023-07-31T10:38:39;3.50;;;2.60;;
63499;SDS011;49654;51.142;14.924;2023-07-31T10:41:09;4.18;;;2.67;;
63499;SDS011;49654;51.142;14.924;2023-07-31T10:43:37;5.93;;;2.28;;
63499;SDS011;49654;51.142;14.924;2023-07-31T10:46:07;7.22;;;2.95;;
63499;SDS011;49654;51.142;14.924;2023-07-31T10:48:38;6.22;;;2.45;;
63499;SDS011;49654;51.142;14.924;2023-07-31T10:51:07;4.85;;;2.53;;
63499;SDS011;49654;51.142;14.924;2023-07-31T10:53:35;3.15;;;2.30;;
63499;SDS011;49654;51.142;14.924;2023-07-31T10:56:03;7.43;;;2.58;;
63499;SDS011;49654;51.142;14.924;2023-07-31T10:58:32;4.65;;;2.90;;
63499;SDS011;49654;51.142;14.924;2023-07-31T11:01:00;6.70;;;3.17;;
63499;SDS011;49654;51.142;14.924;2023-07-31T11:03:43;6.55;;;2.80;;
63499;SDS011;49654;51.142;14.924;2023-07-31T11:06:14;11.38;;;3.50;;
63499;SDS011;49654;51.142;14.924;2023-07-31T11:08:43;3.60;;;2.33;;
63499;SDS011;49654;51.142;14.924;2023-07-31T11:11:11;5.72;;;2.75;;
63499;SDS011;49654;51.142;14.924;2023-07-31T11:13:40;4.82;;;2.63;;
63499;SDS011;49654;51.142;14.924;2023-07-31T11:16:08;4.40;;;2.65;;
63499;SDS011;49654;51.142;14.924;2023-07-31T11:18:38;6.75;;;2.75;;
63499;SDS011;49654;51.142;14.924;2023-07-31T11:21:07;4.85;;;2.60;;
63499;SDS011;49654;51.142;14.924;2023-07-31T11:23:36;5.38;;;2.70;;
63499;SDS011;49654;51.142;14.924;2023-07-31T11:26:04;3.92;;;2.30;;
63499;SDS011;49654;51.142;14.924;2023-07-31T11:28:32;4.60;;;2.85;;
63499;SDS011;49654;51.142;14.924;2023-07-31T11:31:00;3.92;;;2.20;;
63499;SDS011;49654;51.142;14.924;2023-07-31T11:33:28;6.05;;;3.10;;
63499;SDS011;49654;51.142;14.924;2023-07-31T11:35:55;4.18;;;2.92;;
63499;SDS011;49654;51.142;14.924;2023-07-31T11:38:24;5.18;;;2.47;;
63499;SDS011;49654;51.142;14.924;2023-07-31T11:40:52;4.28;;;2.70;;
63499;SDS011;49654;51.142;14.924;2023-07-31T11:43:20;3.22;;;2.42;;
63499;SDS011;49654;51.142;14.924;2023-07-31T11:45:47;5.45;;;2.70;;
63499;SDS011;49654;51.142;14.924;2023-07-31T11:48:18;5.20;;;2.65;;
63499;SDS011;49654;51.142;14.924;2023-07-31T11:50:47;3.67;;;2.95;;
63499;SDS011;49654;51.142;14.924;2023-07-31T11:53:16;4.75;;;2.60;;
63499;SDS011;49654;51.142;14.924;2023-07-31T11:55:46;3.28;;;2.40;;
63499;SDS011;49654;51.142;14.924;2023-07-31T11:58:14;3.50;;;2.70;;
63499;SDS011;49654;51.142;14.924;2023-07-31T12:00:42;3.83;;;2.78;;
63499;SDS011;49654;51.142;14.924;2023-07-31T12:03:10;4.57;;;2.67;;
63499;SDS011;49654;51.142;14.924;2023-07-31T12:05:37;5.13;;;2.50;;
63499;SDS011;49654;51.142;14.924;2023-07-31T12:08:08;4.32;;;3.38;;
63499;SDS011;49654;51.142;14.924;2023-07-31T12:10:37;6.80;;;2.75;;
63499;SDS011;49654;51.142;14.924;2023-07-31T12:13:08;6.35;;;2.60;;
63499;SDS011;49654;51.142;14.924;2023-07-31T12:15:39;3.85;;;2.22;;
63499;SDS011;49654;51.142;14.924;2023-07-31T12:18:08;4.88;;;3.00;;
63499;SDS011;49654;51.142;14.924;2023-07-31T12:20:40;3.20;;;2.70;;
63499;SDS011;49654;51.142;14.924;2023-07-31T12:23:12;5.95;;;2.90;;
63499;SDS011;49654;51.142;14.924;2023-07-31T12:25:40;3.67;;;2.53;;
63499;SDS011;49654;51.142;14.924;2023-07-31T12:28:09;4.13;;;2.85;;
63499;SDS011;49654;51.142;14.924;2023-07-31T12:30:38;4.55;;;3.03;;
63499;SDS011;49654;51.142;14.924;2023-07-31T12:33:06;4.20;;;2.55;;
63499;SDS011;49654;51.142;14.924;2023-07-31T12:35:43;6.15;;;2.78;;
63499;SDS011;49654;51.142;14.924;2023-07-31T12:38:12;5.25;;;2.50;;
63499;SDS011;49654;51.142;14.924;2023-07-31T12:40:39;8.35;;;2.75;;
63499;SDS011;49654;51.142;14.924;2023-07-31T12:43:07;8.90;;;2.85;;
63499;SDS011;49654;51.142;14.924;2023-07-31T12:45:36;5.85;;;2.90;;
63499;SDS011;49654;51.142;14.924;2023-07-31T12:48:03;12.82;;;2.72;;
63499;SDS011;49654;51.142;14.924;2023-07-31T12:50:30;5.13;;;2.83;;
63499;SDS011;49654;51.142;14.924;2023-07-31T12:52:57;5.05;;;2.70;;
63499;SDS011;49654;51.142;14.924;2023-07-31T12:55:24;5.13;;;2.60;;
63499;SDS011;49654;51.142;14.924;2023-07-31T12:57:51;3.53;;;2.33;;
63499;SDS011;49654;51.142;14.924;2023-07-31T13:00:18;4.88;;;2.70;;
63499;SDS011;49654;51.142;14.924;2023-07-31T13:02:47;5.05;;;2.60;;
63499;SDS011;49654;51.142;14.924;2023-07-31T13:05:14;4.78;;;2.60;;
63499;SDS011;49654;51.142;14.924;2023-07-31T13:07:41;4.07;;;2.97;;
63499;SDS011;49654;51.142;14.924;2023-07-31T13:10:08;3.80;;;2.60;;
63499;SDS011;49654;51.142;14.924;2023-07-31T13:12:35;4.88;;;2.58;;
63499;SDS011;49654;51.142;14.924;2023-07-31T13:15:03;3.67;;;2.53;;
63499;SDS011;49654;51.142;14.924;2023-07-31T13:17:30;5.32;;;2.45;;
63499;SDS011;49654;51.142;14.924;2023-07-31T13:19:58;3.80;;;2.25;;
63499;SDS011;49654;51.142;14.924;2023-07-31T13:22:26;4.43;;;2.40;;
63499;SDS011;49654;51.142;14.924;2023-07-31T13:24:53;3.17;;;2.40;;
63499;SDS011;49654;51.142;14.924;2023-07-31T13:27:20;3.88;;;2.20;;
63499;SDS011;49654;51.142;14.924;2023-07-31T13:29:47;2.75;;;2.08;;
63499;SDS011;49654;51.142;14.924;2023-07-31T13:32:15;4.82;;;2.40;;
63499;SDS011;49654;51.142;14.924;2023-07-31T13:34:42;2.55;;;2.25;;
63499;SDS011;49654;51.142;14.924;2023-07-31T13:37:11;3.30;;;2.10;;
63499;SDS011;49654;51.142;14.924;2023-07-31T13:39:38;2.50;;;2.30;;
63499;SDS011;49654;51.142;14.924;2023-07-31T13:42:06;3.33;;;2.45;;
63499;SDS011;49654;51.142;14.924;2023-07-31T13:44:34;3.45;;;2.20;;
63499;SDS011;49654;51.142;14.924;2023-07-31T13:47:01;2.47;;;2.10;;
63499;SDS011;49654;51.142;14.924;2023-07-31T13:49:28;4.80;;;2.28;;
63499;SDS011;49654;51.142;14.924;2023-07-31T13:51:56;4.68;;;2.35;;
63499;SDS011;49654;51.142;14.924;2023-07-31T13:54:25;6.07;;;1.83;;
63499;SDS011;49654;51.142;14.924;2023-07-31T13:56:52;4.22;;;2.33;;
63499;SDS011;49654;51.142;14.924;2023-07-31T13:59:19;6.43;;;2.40;;
63499;SDS011;49654;51.142;14.924;2023-07-31T14:01:47;3.92;;;2.25;;
63499;SDS011;49654;51.142;14.924;2023-07-31T14:04:14;2.85;;;2.15;;
63499;SDS011;49654;51.142;14.924;2023-07-31T14:06:41;3.45;;;2.10;;
63499;SDS011;49654;51.142;14.924;2023-07-31T14:09:08;2.80;;;2.10;;
63499;SDS011;49654;51.142;14.924;2023-07-31T14:11:36;3.58;;;2.47;;
63499;SDS011;49654;51.142;14.924;2023-07-31T14:14:03;3.00;;;1.75;;
63499;SDS011;49654;51.142;14.924;2023-07-31T14:16:31;2.70;;;2.00;;
63499;SDS011;49654;51.142;14.924;2023-07-31T14:18:58;3.65;;;1.92;;
63499;SDS011;49654;51.142;14.924;2023-07-31T14:21:25;3.17;;;1.83;;
63499;SDS011;49654;51.142;14.924;2023-07-31T14:23:52;3.42;;;1.92;;
63499;SDS011;49654;51.142;14.924;2023-07-31T14:26:19;3.00;;;1.90;;
63499;SDS011;49654;51.142;14.924;2023-07-31T14:28:48;5.32;;;2.10;;
63499;SDS011;49654;51.142;14.924;2023-07-31T14:31:15;3.65;;;2.00;;
63499;SDS011;49654;51.142;14.924;2023-07-31T14:33:42;3.95;;;2.58;;
63499;SDS011;49654;51.142;14.924;2023-07-31T14:36:09;4.63;;;2.28;;